createdAt,value
2022-10-18T00:00:46.196Z,102760.69
2022-10-18T00:03:12.508Z,102771.69
2022-10-18T00:05:38.916Z,102759.53
2022-10-18T00:08:05.381Z,102760.13
2022-10-18T00:10:31.759Z,102756.13
2022-10-18T00:12:58.095Z,102755.06
2022-10-18T00:15:24.581Z,102755.66
2022-10-18T00:17:50.893Z,102763.47
2022-10-18T00:20:17.204Z,102756.47
2022-10-18T00:22:43.536Z,102758.09
2022-10-18T00:25:10.450Z,102760.53
2022-10-18T00:27:37.267Z,102763.81
2022-10-18T00:30:05.005Z,102770.63
2022-10-18T00:32:31.583Z,102766.03
2022-10-18T00:34:58.207Z,102763.94
2022-10-18T00:37:24.583Z,102764.16
2022-10-18T00:42:25.104Z,102776.81
2022-10-18T00:44:51.391Z,102769.53
2022-10-18T00:47:18.756Z,102771.69
2022-10-18T00:49:53.091Z,102765.47
2022-10-18T00:52:24.136Z,102771.09
2022-10-18T00:54:52.071Z,102769.47
2022-10-18T00:57:18.712Z,102773.53
2022-10-18T00:59:46.510Z,102776.22
2022-10-18T01:02:14.956Z,102773.78
2022-10-18T01:04:41.488Z,102782.91
2022-10-18T01:07:18.744Z,102778.84
2022-10-18T01:10:08.259Z,102774.72
2022-10-18T01:13:02.555Z,102783.28
2022-10-18T01:15:33.899Z,102783.78
2022-10-18T01:18:20.869Z,102786.09
2022-10-18T01:21:11.267Z,102779.66
2022-10-18T01:23:59.509Z,102776.16
2022-10-18T01:26:41.036Z,102782.34
2022-10-18T01:29:26.652Z,102781.44
2022-10-18T01:32:10.571Z,102797.81
2022-10-18T01:34:40.429Z,102797.81
2022-10-18T01:37:09.274Z,102799.34
2022-10-18T01:39:39.251Z,102795.84
2022-10-18T01:42:09.750Z,102796.66
2022-10-18T01:44:38.832Z,102802.03
2022-10-18T01:47:07.530Z,102803.47
2022-10-18T01:49:34.496Z,102802.03
2022-10-18T01:52:00.960Z,102796.66
2022-10-18T01:54:35.047Z,102790.47
2022-10-18T01:57:19.464Z,102790.69
2022-10-18T01:59:54.798Z,102794.22
2022-10-18T02:02:30.611Z,102795.84
2022-10-18T02:05:18.604Z,102790.69
2022-10-18T02:08:24.346Z,102788.25
2022-10-18T02:11:12.363Z,102792.56
2022-10-18T02:13:43.236Z,102797.38
2022-10-18T02:16:15.687Z,102794.34
2022-10-18T02:18:48.667Z,102796.19
2022-10-18T02:21:19.192Z,102788.59
2022-10-18T02:23:46.949Z,102793.16
2022-10-18T02:26:16.888Z,102797.72
2022-10-18T02:28:44.056Z,102793.16
2022-10-18T02:31:18.781Z,102800.66
2022-10-18T02:33:56.843Z,102800.88
2022-10-18T02:36:36.259Z,102791.06
2022-10-18T02:39:11.940Z,102789.91
2022-10-18T02:41:38.496Z,102793.31
2022-10-18T02:44:04.902Z,102792.13
2022-10-18T02:46:31.422Z,102793.41
2022-10-18T02:48:57.754Z,102789.56
2022-10-18T02:51:25.113Z,102790.84
2022-10-18T02:53:51.680Z,102791.66
2022-10-18T02:56:18.058Z,102798.31
2022-10-18T02:58:44.429Z,102805.22
2022-10-18T03:01:10.804Z,102797.38
2022-10-18T03:03:37.181Z,102788.13
2022-10-18T03:06:03.665Z,102786.75
2022-10-18T03:08:30.043Z,102786.94
2022-10-18T03:10:56.386Z,102793.88
2022-10-18T03:13:22.791Z,102790.00
2022-10-18T03:15:49.209Z,102794.78
2022-10-18T03:18:15.780Z,102800.63
2022-10-18T03:20:42.229Z,102802.94
2022-10-18T03:23:09.137Z,102800.97
2022-10-18T03:25:35.491Z,102794.97
2022-10-18T03:28:01.838Z,102792.72
2022-10-18T03:30:28.235Z,102803.13
2022-10-18T03:32:54.635Z,102798.44
2022-10-18T03:35:21.209Z,102805.78
2022-10-18T03:37:47.604Z,102802.97
2022-10-18T03:40:13.971Z,102795.16
2022-10-18T03:42:40.441Z,102796.41
2022-10-18T03:45:07.452Z,102796.28
2022-10-18T03:47:33.989Z,102795.09
2022-10-18T03:50:00.549Z,102802.56
2022-10-18T03:52:26.881Z,102799.88
2022-10-18T03:54:53.269Z,102808.38
2022-10-18T03:57:19.635Z,102802.03
2022-10-18T03:59:45.963Z,102807.88
2022-10-18T04:02:12.340Z,102806.47
2022-10-18T04:04:38.694Z,102802.38
2022-10-18T04:07:05.044Z,102784.84
2022-10-18T04:09:31.414Z,102801.41
2022-10-18T04:11:57.741Z,102798.81
2022-10-18T04:14:24.068Z,102796.22
2022-10-18T04:16:50.445Z,102794.56
2022-10-18T04:19:17.016Z,102792.31
2022-10-18T04:21:43.343Z,102803.31
2022-10-18T04:24:09.651Z,102807.47
2022-10-18T04:26:35.980Z,102803.38
2022-10-18T04:29:02.491Z,102801.13
2022-10-18T04:31:28.923Z,102797.25
2022-10-18T04:33:55.347Z,102796.66
2022-10-18T04:36:21.741Z,102794.44
2022-10-18T04:38:48.083Z,102790.78
2022-10-18T04:41:14.402Z,102790.19
2022-10-18T04:43:40.761Z,102791.44
2022-10-18T04:46:07.141Z,102797.25
2022-10-18T04:48:33.493Z,102801.00
2022-10-18T04:50:59.893Z,102793.97
2022-10-18T04:53:26.225Z,102801.44
2022-10-18T04:55:52.632Z,102802.91
2022-10-18T04:58:19.179Z,102800.53
2022-10-18T05:00:47.554Z,102803.03
2022-10-18T05:03:14.617Z,102805.16
2022-10-18T05:06:00.332Z,102813.75
2022-10-18T05:08:27.657Z,102801.78
2022-10-18T05:10:54.090Z,102805.72
2022-10-18T05:13:20.433Z,102805.72
2022-10-18T05:15:47.468Z,102817.78
2022-10-18T05:18:13.883Z,102812.47
2022-10-18T05:20:40.206Z,102814.53
2022-10-18T05:23:06.546Z,102817.66
2022-10-18T05:25:32.892Z,102821.81
2022-10-18T05:28:03.430Z,102824.53
2022-10-18T05:30:39.052Z,102830.56
2022-10-18T05:33:05.786Z,102842.31
2022-10-18T05:35:32.140Z,102838.81
2022-10-18T05:37:58.489Z,102829.97
2022-10-18T05:40:24.862Z,102844.53
2022-10-18T05:42:54.043Z,102839.78
2022-10-18T05:45:20.402Z,102845.56
2022-10-18T05:47:46.843Z,102847.78
2022-10-18T05:50:14.860Z,102847.19
2022-10-18T05:52:41.283Z,102849.84
2022-10-18T05:55:07.949Z,102845.75
2022-10-18T05:57:34.725Z,102852.53
2022-10-18T06:00:01.284Z,102860.81
2022-10-18T06:02:27.651Z,102860.00
2022-10-18T06:04:53.998Z,102871.31
2022-10-18T06:07:20.307Z,102886.97
2022-10-18T06:09:46.607Z,102874.59
2022-10-18T06:12:13.191Z,102874.41
2022-10-18T06:14:39.624Z,102871.09
2022-10-18T06:17:06.010Z,102888.16
2022-10-18T06:19:32.330Z,102897.84
2022-10-18T06:21:58.648Z,102886.09
2022-10-18T06:24:25.164Z,102890.19
2022-10-18T06:26:51.520Z,102890.56
2022-10-18T06:29:17.909Z,102905.41
2022-10-18T06:31:44.254Z,102908.69
2022-10-18T06:34:10.566Z,102908.47
2022-10-18T06:36:36.913Z,102906.16
2022-10-18T06:39:03.341Z,102905.13
2022-10-18T06:41:29.664Z,102915.44
2022-10-18T06:43:57.680Z,102914.41
2022-10-18T06:46:25.726Z,102921.41
2022-10-18T06:48:52.124Z,102919.28
2022-10-18T06:51:18.590Z,102928.31
2022-10-18T06:54:05.819Z,102931.19
2022-10-18T06:56:31.581Z,102934.03
2022-10-18T07:01:25.267Z,102941.81
2022-10-18T07:03:53.345Z,102934.97
2022-10-18T07:06:20.450Z,102948.75
2022-10-18T07:08:48.190Z,102945.03
2022-10-18T07:11:20.295Z,102944.00
2022-10-18T07:13:46.752Z,102953.25
2022-10-18T07:16:18.244Z,102949.91
2022-10-18T07:18:50.769Z,102961.03
2022-10-18T07:21:19.963Z,102956.25
2022-10-18T07:23:47.280Z,102953.13
2022-10-18T07:26:15.198Z,102954.53
2022-10-18T07:28:42.694Z,102960.28
2022-10-18T07:31:10.487Z,102960.88
2022-10-18T07:33:39.819Z,102966.84
2022-10-18T07:36:08.336Z,102972.84
2022-10-18T07:38:35.651Z,102974.44
2022-10-18T07:41:04.203Z,102973.41
2022-10-18T07:43:30.760Z,102972.97
2022-10-18T07:46:00.201Z,102968.81
2022-10-18T07:48:27.090Z,102984.00
2022-10-18T07:50:53.876Z,102976.72
2022-10-18T07:53:20.545Z,102981.56
2022-10-18T07:55:46.861Z,102990.13
2022-10-18T07:58:13.239Z,102990.44
2022-10-18T08:00:40.037Z,103002.31
2022-10-18T08:03:06.748Z,102990.81
2022-10-18T08:08:07.889Z,102996.22
2022-10-18T08:10:36.181Z,103003.03
2022-10-18T08:13:02.499Z,103008.44
2022-10-18T08:15:28.802Z,103000.16
2022-10-18T08:17:55.118Z,103011.91
2022-10-18T08:20:30.273Z,103014.00
2022-10-18T08:23:00.158Z,103006.53
2022-10-18T08:25:27.410Z,103002.41
2022-10-18T08:27:53.780Z,103017.31
2022-10-18T08:30:20.261Z,103017.31
2022-10-18T08:32:46.573Z,103006.53
2022-10-18T08:35:12.874Z,103009.16
2022-10-18T08:37:40.213Z,103009.34
2022-10-18T08:40:07.147Z,103002.63
2022-10-18T08:43:00.346Z,103001.94
2022-10-18T08:45:41.900Z,103013.09
2022-10-18T08:48:21.631Z,103014.91
2022-10-18T08:50:49.629Z,103007.44
2022-10-18T08:53:49.152Z,103012.47
2022-10-18T08:56:18.768Z,103020.47
2022-10-18T08:58:45.200Z,103005.78
2022-10-18T09:01:17.459Z,103006.16
2022-10-18T09:04:08.454Z,103006.31
2022-10-18T09:07:04.769Z,103010.72
2022-10-18T09:09:56.036Z,103016.72
2022-10-18T09:12:50.200Z,103018.78
2022-10-18T09:15:44.499Z,103020.22
2022-10-18T09:18:41.660Z,103007.97
2022-10-18T09:21:26.965Z,103009.09
2022-10-18T09:24:02.548Z,103014.50
2022-10-18T09:26:39.198Z,103025.84
2022-10-18T09:29:39.483Z,103026.84
2022-10-18T09:32:21.114Z,103027.97
2022-10-18T09:34:58.082Z,103032.97
2022-10-18T09:37:28.297Z,103033.63
2022-10-18T09:40:19.496Z,103037.78
2022-10-18T09:43:08.029Z,103031.78
2022-10-18T09:45:40.054Z,103028.34
2022-10-18T09:48:23.946Z,103038.44
2022-10-18T09:51:04.637Z,103041.00
2022-10-18T09:53:58.554Z,103038.16
2022-10-18T09:56:36.684Z,103038.44
2022-10-18T09:59:19.383Z,103028.28
2022-10-18T10:01:45.822Z,103037.19
2022-10-18T10:04:12.192Z,103038.78
2022-10-18T10:06:49.037Z,103039.91
2022-10-18T10:09:17.921Z,103037.53
2022-10-18T10:11:49.148Z,103040.47
2022-10-18T10:14:19.322Z,103044.28
2022-10-18T10:16:53.073Z,103044.59
2022-10-18T10:19:24.183Z,103055.75
2022-10-18T10:21:55.061Z,103053.81
2022-10-18T10:24:28.927Z,103053.00
2022-10-18T10:27:03.277Z,103061.97
2022-10-18T10:29:48.068Z,103060.84
2022-10-18T10:32:19.607Z,103056.81
2022-10-18T10:34:46.731Z,103057.63
2022-10-18T10:37:35.005Z,103059.75
2022-10-18T10:40:18.347Z,103062.63
2022-10-18T10:42:54.539Z,103060.66
2022-10-18T10:45:29.525Z,103063.72
2022-10-18T10:48:04.557Z,103067.50
2022-10-18T10:50:31.468Z,103061.56
2022-10-18T10:52:58.630Z,103069.97
2022-10-18T10:55:35.785Z,103072.50
2022-10-18T10:58:02.487Z,103073.09
2022-10-18T11:00:47.043Z,103071.97
2022-10-18T11:03:34.535Z,103065.56
2022-10-18T11:06:01.756Z,103068.44
2022-10-18T11:08:41.330Z,103065.47
2022-10-18T11:11:27.739Z,103061.75
2022-10-18T11:14:26.182Z,103075.44
2022-10-18T11:17:06.977Z,103077.38
2022-10-18T11:20:01.229Z,103075.16
2022-10-18T11:22:35.038Z,103067.44
2022-10-18T11:25:03.918Z,103063.09
2022-10-18T11:27:48.900Z,103069.50
2022-10-18T11:30:36.724Z,103069.75
2022-10-18T11:33:11.902Z,103061.88
2022-10-18T11:35:47.342Z,103065.75
2022-10-18T11:38:33.596Z,103068.47
2022-10-18T11:41:06.753Z,103067.94
2022-10-18T11:44:03.135Z,103069.69
2022-10-18T11:46:57.213Z,103068.69
2022-10-18T11:49:26.176Z,103072.56
2022-10-18T11:52:22.489Z,103066.81
2022-10-18T11:55:00.258Z,103065.94
2022-10-18T11:57:36.086Z,103071.88
2022-10-18T12:03:19.530Z,103061.25
2022-10-18T12:05:48.412Z,103057.66
2022-10-18T12:08:38.722Z,103066.09
2022-10-18T12:11:14.377Z,103057.94
2022-10-18T12:13:44.230Z,103056.97
2022-10-18T12:16:12.204Z,103062.56
2022-10-18T12:21:25.930Z,103058.03
2022-10-18T12:24:05.936Z,103052.94
2022-10-18T12:26:34.987Z,103057.38
2022-10-18T12:29:39.918Z,103054.03
2022-10-18T12:32:13.013Z,103038.75
2022-10-18T12:35:03.229Z,103045.44
2022-10-18T12:37:51.223Z,103047.81
2022-10-18T12:40:23.324Z,103038.78
2022-10-18T12:42:52.020Z,103043.59
2022-10-18T12:45:46.239Z,103046.31
2022-10-18T12:48:35.230Z,103042.72
2022-10-18T12:51:18.559Z,103049.81
2022-10-18T12:53:47.598Z,103046.69
2022-10-18T12:56:29.131Z,103041.22
2022-10-18T12:59:18.612Z,103034.69
2022-10-18T13:01:51.324Z,103039.75
2022-10-18T13:04:32.358Z,103031.31
2022-10-18T13:06:59.653Z,103026.94
2022-10-18T13:09:48.185Z,103020.72
2022-10-18T13:12:14.451Z,103026.66
2022-10-18T13:15:27.695Z,103023.97
2022-10-18T13:18:26.753Z,103014.44
2022-10-18T13:21:09.680Z,103010.78
2022-10-18T13:23:38.059Z,103009.66
2022-10-18T13:26:32.160Z,103010.53
2022-10-18T13:29:27.926Z,103001.75
2022-10-18T13:34:46.707Z,103010.50
2022-10-18T13:37:13.887Z,103018.41
2022-10-18T13:39:40.363Z,103013.84
2022-10-18T13:42:12.664Z,103012.75
2022-10-18T13:44:40.089Z,103021.94
2022-10-18T13:47:06.901Z,103019.72
2022-10-18T13:49:39.452Z,103020.50
2022-10-18T13:52:25.804Z,103019.34
2022-10-18T13:55:26.421Z,103016.34
2022-10-18T13:57:55.534Z,103005.91
2022-10-18T14:00:59.552Z,103022.84
2022-10-18T14:03:57.002Z,103029.63
2022-10-18T14:06:28.694Z,103018.03
2022-10-18T14:09:09.513Z,103012.41
2022-10-18T14:11:53.629Z,103015.34
2022-10-18T14:14:34.289Z,103028.56
2022-10-18T14:17:28.119Z,103020.53
2022-10-18T14:20:01.439Z,103025.31
2022-10-18T14:22:34.465Z,103024.47
2022-10-18T14:25:01.123Z,103034.31
2022-10-18T14:27:32.951Z,103035.53
2022-10-18T14:30:20.164Z,103029.44
2022-10-18T14:32:54.393Z,103032.31
2022-10-18T14:35:38.908Z,103025.66
2022-10-18T14:38:06.225Z,103030.97
2022-10-18T14:40:40.061Z,103038.53
2022-10-18T14:43:12.323Z,103038.03
2022-10-18T14:45:39.417Z,103039.34
2022-10-18T14:48:18.072Z,103040.25
2022-10-18T14:50:47.121Z,103033.56
2022-10-18T14:53:22.005Z,103039.63
2022-10-18T14:55:57.797Z,103036.91
2022-10-18T14:58:24.268Z,103044.84
2022-10-18T15:00:50.749Z,103040.84
2022-10-18T15:03:18.721Z,103045.06
2022-10-18T15:05:59.400Z,103051.16
2022-10-18T15:08:38.517Z,103055.28
2022-10-18T15:11:10.477Z,103055.09
2022-10-18T15:13:48.039Z,103041.31
2022-10-18T15:16:18.362Z,103046.56
2022-10-18T15:18:58.961Z,103038.72
2022-10-18T15:21:25.468Z,103045.28
2022-10-18T15:23:54.115Z,103053.41
2022-10-18T15:26:29.901Z,103044.72
2022-10-18T15:29:01.434Z,103043.34
2022-10-18T15:31:35.965Z,103041.16
2022-10-18T15:34:30.158Z,103046.03
2022-10-18T15:36:57.087Z,103044.94
2022-10-18T15:39:26.336Z,103043.84
2022-10-18T15:41:59.184Z,103050.59
2022-10-18T15:44:31.988Z,103052.09
2022-10-18T15:47:13.634Z,103055.84
2022-10-18T15:49:46.212Z,103054.41
2022-10-18T15:52:21.828Z,103063.06
2022-10-18T15:57:20.452Z,103062.63
2022-10-18T16:00:00.482Z,103060.09
2022-10-18T16:02:26.892Z,103060.63
2022-10-18T16:04:53.596Z,103064.31
2022-10-18T16:07:20.292Z,103062.66
2022-10-18T16:09:46.679Z,103047.41
2022-10-18T16:12:13.015Z,103058.50
2022-10-18T16:14:39.479Z,103060.81
2022-10-18T16:17:07.162Z,103059.44
2022-10-18T16:19:33.919Z,103070.78
2022-10-18T16:22:06.089Z,103067.72
2022-10-18T16:24:33.180Z,103063.59
2022-10-18T16:26:59.535Z,103059.88
2022-10-18T16:29:28.441Z,103066.91
2022-10-18T16:31:57.888Z,103076.22
2022-10-18T16:34:26.880Z,103069.06
2022-10-18T16:36:54.067Z,103066.22
2022-10-18T16:39:21.721Z,103078.00
2022-10-18T16:41:48.804Z,103073.22
2022-10-18T16:44:16.398Z,103076.03
2022-10-18T16:46:43.305Z,103075.41
2022-10-18T16:51:46.847Z,103073.44
2022-10-18T16:54:13.295Z,103087.06
2022-10-18T16:56:40.157Z,103088.19
2022-10-18T16:59:07.016Z,103086.38
2022-10-18T17:01:33.438Z,103090.22
2022-10-18T17:03:59.800Z,103096.25
2022-10-18T17:06:29.365Z,103097.91
2022-10-18T17:08:56.943Z,103112.41
2022-10-18T17:11:25.297Z,103106.22
2022-10-18T17:13:51.976Z,103106.38
2022-10-18T17:16:33.104Z,103107.78
2022-10-18T17:19:02.094Z,103108.28
2022-10-18T17:21:29.214Z,103110.06
2022-10-18T17:24:00.430Z,103113.94
2022-10-18T17:26:29.356Z,103111.84
2022-10-18T17:28:59.296Z,103123.22
2022-10-18T17:31:25.718Z,103121.34
2022-10-18T17:33:54.596Z,103128.88
2022-10-18T17:36:21.777Z,103123.47
2022-10-18T17:38:52.891Z,103130.84
2022-10-18T17:41:19.386Z,103125.94
2022-10-18T17:43:45.720Z,103123.34
2022-10-18T17:46:12.969Z,103125.53
2022-10-18T17:48:39.339Z,103119.88
2022-10-18T17:51:10.688Z,103117.31
2022-10-18T17:53:37.226Z,103122.53
2022-10-18T17:56:04.664Z,103131.31
2022-10-18T17:58:31.577Z,103126.94
2022-10-18T18:01:07.541Z,103127.88
2022-10-18T18:03:33.925Z,103132.75
2022-10-18T18:06:00.300Z,103138.44
2022-10-18T18:08:26.818Z,103140.84
2022-10-18T18:10:55.889Z,103153.19
2022-10-18T18:13:22.247Z,103152.66
2022-10-18T18:15:48.568Z,103153.44
2022-10-18T18:18:15.011Z,103150.66
2022-10-18T18:20:41.387Z,103156.53
2022-10-18T18:23:07.700Z,103157.03
2022-10-18T18:25:34.058Z,103155.22
2022-10-18T18:28:06.672Z,103157.69
2022-10-18T18:30:33.870Z,103154.16
2022-10-18T18:33:00.185Z,103158.34
2022-10-18T18:35:26.528Z,103151.78
2022-10-18T18:37:52.886Z,103151.38
2022-10-18T18:40:19.289Z,103155.56
2022-10-18T18:42:56.793Z,103149.22
2022-10-18T18:45:31.948Z,103154.19
2022-10-18T18:47:58.280Z,103159.59
2022-10-18T18:50:24.584Z,103163.56
2022-10-18T18:52:50.899Z,103174.16
2022-10-18T18:55:17.378Z,103176.44
2022-10-18T18:57:43.718Z,103177.78
2022-10-18T19:00:12.539Z,103174.75
2022-10-18T19:02:38.858Z,103176.91
2022-10-18T19:05:05.494Z,103173.41
2022-10-18T19:07:32.252Z,103171.16
2022-10-18T19:09:58.854Z,103180.91
2022-10-18T19:12:25.214Z,103175.94
2022-10-18T19:14:51.537Z,103182.00
2022-10-18T19:17:17.924Z,103178.06
2022-10-18T19:19:44.301Z,103170.47
2022-10-18T19:22:11.048Z,103173.63
2022-10-18T19:24:37.478Z,103173.22
2022-10-18T19:27:09.520Z,103179.44
2022-10-18T19:29:37.949Z,103179.22
2022-10-18T19:32:07.221Z,103179.22
2022-10-18T19:34:34.564Z,103171.81
2022-10-18T19:37:01.545Z,103183.56
2022-10-18T19:39:33.550Z,103181.13
2022-10-18T19:42:03.227Z,103173.09
2022-10-18T19:44:31.721Z,103173.09
2022-10-18T19:46:58.509Z,103177.44
2022-10-18T19:49:25.504Z,103174.13
2022-10-18T19:51:52.141Z,103169.59
2022-10-18T19:54:18.614Z,103171.88
2022-10-18T19:56:45.236Z,103165.06
2022-10-18T19:59:13.171Z,103161.38
2022-10-18T20:01:39.800Z,103171.69
2022-10-18T20:04:08.264Z,103169.41
2022-10-18T20:06:36.433Z,103166.31
2022-10-18T20:09:03.363Z,103174.75
2022-10-18T20:11:30.177Z,103171.25
2022-10-18T20:13:57.087Z,103179.09
2022-10-18T20:16:28.457Z,103178.25
2022-10-18T20:19:07.266Z,103179.69
2022-10-18T20:21:36.941Z,103183.59
2022-10-18T20:24:04.659Z,103183.81
2022-10-18T20:26:31.708Z,103186.88
2022-10-18T20:28:59.622Z,103182.34
2022-10-18T20:31:31.807Z,103185.59
2022-10-18T20:34:00.390Z,103185.41
2022-10-18T20:36:28.311Z,103187.44
2022-10-18T20:38:55.075Z,103183.13
2022-10-18T20:41:26.987Z,103186.41
2022-10-18T20:43:58.907Z,103185.16
2022-10-18T20:46:26.812Z,103176.91
2022-10-18T20:48:53.888Z,103180.41
2022-10-18T20:51:21.686Z,103175.66
2022-10-18T20:53:48.660Z,103171.53
2022-10-18T20:56:17.797Z,103166.97
2022-10-18T20:58:44.877Z,103175.41
2022-10-18T21:01:17.275Z,103172.31
2022-10-18T21:03:45.732Z,103171.88
2022-10-18T21:06:17.373Z,103168.16
2022-10-18T21:08:44.100Z,103168.56
2022-10-18T21:11:12.016Z,103165.63
2022-10-18T21:13:38.532Z,103170.56
2022-10-18T21:16:05.947Z,103167.25
2022-10-18T21:18:34.260Z,103167.06
2022-10-18T21:23:39.636Z,103164.44
2022-10-18T21:26:06.709Z,103166.06
2022-10-18T21:28:33.246Z,103166.47
2022-10-18T21:31:12.517Z,103169.72
2022-10-18T21:33:40.188Z,103163.31
2022-10-18T21:36:06.728Z,103163.25
2022-10-18T21:38:33.071Z,103174.75
2022-10-18T21:40:59.668Z,103174.69
2022-10-18T21:43:26.348Z,103170.97
2022-10-18T21:46:01.916Z,103174.22
2022-10-18T21:48:28.318Z,103177.44
2022-10-18T21:50:54.847Z,103182.34
2022-10-18T21:53:21.759Z,103176.94
2022-10-18T21:55:48.299Z,103183.13
2022-10-18T21:58:14.957Z,103182.66
2022-10-18T22:00:41.336Z,103182.22
2022-10-18T22:03:13.254Z,103169.91
2022-10-18T22:05:39.915Z,103173.59
2022-10-18T22:08:07.060Z,103174.59
2022-10-18T22:10:33.628Z,103162.28
2022-10-18T22:12:59.975Z,103161.25
2022-10-18T22:15:26.318Z,103160.44
2022-10-18T22:17:52.696Z,103161.47
2022-10-18T22:20:19.071Z,103159.00
2022-10-18T22:22:45.375Z,103165.34
2022-10-18T22:25:11.687Z,103171.06
2022-10-18T22:27:38.508Z,103159.75
2022-10-18T22:30:05.439Z,103156.44
2022-10-18T22:32:31.745Z,103151.72
2022-10-18T22:34:58.069Z,103160.38
2022-10-18T22:37:24.437Z,103153.38
2022-10-18T22:39:50.753Z,103159.56
2022-10-18T22:42:17.087Z,103152.94
2022-10-18T22:44:43.407Z,103153.69
2022-10-18T22:47:09.811Z,103161.06
2022-10-18T22:49:36.115Z,103160.84
2022-10-18T22:52:02.452Z,103150.28
2022-10-18T22:54:28.808Z,103145.13
2022-10-18T22:56:55.132Z,103153.50
2022-10-18T22:59:21.439Z,103151.84
2022-10-18T23:01:47.752Z,103152.06
2022-10-18T23:04:14.109Z,103147.09
2022-10-18T23:06:40.465Z,103147.28
2022-10-18T23:09:10.075Z,103148.09
2022-10-18T23:11:37.196Z,103155.72
2022-10-18T23:14:05.423Z,103153.72
2022-10-18T23:16:32.111Z,103151.25
2022-10-18T23:18:59.130Z,103152.69
2022-10-18T23:21:28.067Z,103142.84
2022-10-18T23:23:55.443Z,103143.59
2022-10-18T23:26:24.308Z,103141.03
2022-10-18T23:28:52.337Z,103150.91
2022-10-18T23:31:27.679Z,103142.63
2022-10-18T23:33:56.441Z,103146.88
2022-10-18T23:36:23.694Z,103144.13
2022-10-18T23:38:50.454Z,103155.19
2022-10-18T23:41:18.306Z,103157.59
2022-10-18T23:43:45.087Z,103157.13
2022-10-18T23:46:12.173Z,103163.03
2022-10-18T23:48:38.772Z,103167.44
2022-10-18T23:51:06.077Z,103162.09
2022-10-18T23:53:32.661Z,103161.84
2022-10-18T23:56:00.250Z,103154.38
2022-10-18T23:58:27.519Z,103158.06
